Time;durP1;ratioP1;P1;durP2;ratioP2;P2;SDS_P1;SDS_P2;PMS_P1;PMS_P2;Temp;Humidity;BMP_temperature;BMP_pressure;BME280_temperature;BME280_humidity;BME280_pressure;Samples;Min_cycle;Max_cycle;Signal;HPM_P1;HPM_P2
2021/09/16 00:01:23;;;;;;;3.97;3.58;;;17.40;99.90;;;;;;4918378;28;20202;-87
2021/09/16 00:03:50;;;;;;;6.82;3.63;;;17.40;99.90;;;;;;4921997;28;20261;-87
2021/09/16 00:06:17;;;;;;;4.45;4.00;;;17.40;99.90;;;;;;4920271;28;20237;-87
2021/09/16 00:08:44;;;;;;;4.63;3.72;;;17.40;99.90;;;;;;4919872;28;20230;-86
2021/09/16 00:11:11;;;;;;;5.25;3.40;;;17.40;99.90;;;;;;4921826;28;20207;-86
2021/09/16 00:13:39;;;;;;;4.97;3.92;;;17.40;99.90;;;;;;4930674;28;20236;-86
2021/09/16 00:16:07;;;;;;;8.05;3.53;;;17.40;99.90;;;;;;4913907;28;20221;-88
2021/09/16 00:18:34;;;;;;;4.55;3.42;;;17.40;99.90;;;;;;4926150;28;20230;-89
2021/09/16 00:21:01;;;;;;;4.38;3.30;;;17.40;99.90;;;;;;4960058;28;20275;-86
2021/09/16 00:23:28;;;;;;;5.22;3.92;;;17.40;99.90;;;;;;4940683;28;20290;-86
2021/09/16 00:25:55;;;;;;;4.43;3.33;;;17.40;99.90;;;;;;4923215;28;20284;-86
2021/09/16 00:28:22;;;;;;;4.53;3.13;;;17.40;99.90;;;;;;4927911;28;20234;-86
2021/09/16 00:30:50;;;;;;;5.05;3.53;;;17.40;99.90;;;;;;4916291;28;20240;-86
2021/09/16 00:33:17;;;;;;;5.40;3.30;;;17.40;99.90;;;;;;4921914;28;20667;-88
2021/09/16 00:35:45;;;;;;;4.95;3.10;;;17.40;99.90;;;;;;4928190;28;20282;-86
2021/09/16 00:38:12;;;;;;;4.03;3.30;;;17.50;99.90;;;;;;4928134;28;20234;-88
2021/09/16 00:40:39;;;;;;;3.35;3.03;;;17.50;99.90;;;;;;4949343;28;20199;-88
2021/09/16 00:43:06;;;;;;;4.00;3.20;;;17.40;99.90;;;;;;4920499;28;20294;-86
2021/09/16 00:45:33;;;;;;;4.30;3.47;;;17.50;99.90;;;;;;4919731;28;20204;-86
2021/09/16 00:48:01;;;;;;;4.82;3.00;;;17.40;99.90;;;;;;4918615;28;20240;-87
2021/09/16 00:50:28;;;;;;;4.03;3.50;;;17.30;99.90;;;;;;4918539;28;20194;-86
2021/09/16 00:52:55;;;;;;;4.35;3.20;;;17.40;99.90;;;;;;4916289;28;20281;-87
2021/09/16 00:55:25;;;;;;;4.45;3.55;;;17.40;99.90;;;;;;4923597;28;20257;-88
2021/09/16 00:57:54;;;;;;;5.05;3.17;;;17.40;99.90;;;;;;4922582;28;20317;-86
2021/09/16 01:00:22;;;;;;;3.63;3.25;;;17.40;99.90;;;;;;4921832;28;20203;-86
2021/09/16 01:02:49;;;;;;;4.65;3.10;;;17.30;99.90;;;;;;4918052;28;20609;-87
2021/09/16 01:05:18;;;;;;;6.65;3.33;;;17.30;99.90;;;;;;4949383;28;20204;-87
2021/09/16 01:07:45;;;;;;;5.28;3.58;;;17.20;99.90;;;;;;4918797;28;20316;-87
2021/09/16 01:10:13;;;;;;;4.03;3.10;;;17.10;99.90;;;;;;4917743;28;20227;-86
2021/09/16 01:12:43;;;;;;;5.45;3.40;;;17.20;99.90;;;;;;4921512;28;20310;-87
2021/09/16 01:15:11;;;;;;;6.25;3.67;;;17.20;99.90;;;;;;4948547;28;20293;-86
2021/09/16 01:17:38;;;;;;;6.32;3.53;;;17.20;99.90;;;;;;4934813;28;20233;-86
2021/09/16 01:20:06;;;;;;;4.68;3.53;;;17.20;99.90;;;;;;4924804;28;20667;-87
2021/09/16 01:22:35;;;;;;;4.30;3.88;;;17.20;99.90;;;;;;4926520;28;20238;-86
2021/09/16 01:25:02;;;;;;;5.88;3.50;;;17.20;99.90;;;;;;4923788;28;20215;-87
2021/09/16 01:27:30;;;;;;;5.40;3.42;;;17.30;99.90;;;;;;4920434;28;20247;-86
2021/09/16 01:29:57;;;;;;;3.85;3.30;;;17.20;99.90;;;;;;4933320;28;20213;-86
2021/09/16 01:32:24;;;;;;;3.97;2.95;;;17.30;99.90;;;;;;4919849;28;20245;-86
2021/09/16 01:34:51;;;;;;;3.53;3.20;;;17.20;99.90;;;;;;4924185;28;20221;-86
2021/09/16 01:37:18;;;;;;;5.10;3.28;;;17.10;99.90;;;;;;4922487;28;20236;-87
2021/09/16 01:39:47;;;;;;;4.40;3.05;;;17.00;99.90;;;;;;4949821;28;20286;-87
2021/09/16 01:42:14;;;;;;;4.05;3.03;;;16.90;99.90;;;;;;4929406;28;20973;-89
2021/09/16 01:44:41;;;;;;;7.40;3.40;;;16.90;99.90;;;;;;4935036;28;20603;-86
2021/09/16 01:47:08;;;;;;;3.78;3.33;;;16.80;99.90;;;;;;4902645;28;20226;-86
2021/09/16 01:49:35;;;;;;;4.93;3.28;;;16.80;99.90;;;;;;4925519;29;20214;-87
2021/09/16 01:52:03;;;;;;;6.22;3.47;;;16.70;99.90;;;;;;4924955;28;20238;-86
2021/09/16 01:54:30;;;;;;;4.38;3.83;;;16.70;99.90;;;;;;4935092;28;20203;-86
2021/09/16 01:56:58;;;;;;;4.53;3.70;;;16.60;99.90;;;;;;4927448;28;20210;-86
2021/09/16 01:59:25;;;;;;;3.92;3.10;;;16.70;99.90;;;;;;4920083;28;20207;-87
2021/09/16 02:01:52;;;;;;;3.22;2.92;;;16.70;99.90;;;;;;4925124;28;20226;-86
2021/09/16 02:04:19;;;;;;;4.07;3.10;;;16.70;99.90;;;;;;4952479;28;20262;-87
2021/09/16 02:06:46;;;;;;;5.28;3.55;;;16.60;99.90;;;;;;4929986;28;20234;-86
2021/09/16 02:09:13;;;;;;;5.15;3.25;;;16.60;99.90;;;;;;4920443;28;20873;-86
2021/09/16 02:11:40;;;;;;;7.53;3.38;;;16.70;99.90;;;;;;4925469;28;20206;-86
2021/09/16 02:14:09;;;;;;;6.78;3.13;;;16.60;99.90;;;;;;4956933;28;20218;-86
2021/09/16 02:16:35;;;;;;;7.03;3.40;;;16.60;99.90;;;;;;4931888;28;20293;-89
2021/09/16 02:19:04;;;;;;;4.07;3.15;;;16.70;99.90;;;;;;4923924;28;20262;-86
2021/09/16 02:21:32;;;;;;;4.40;2.90;;;16.70;99.90;;;;;;4921520;28;20213;-86
2021/09/16 02:24:00;;;;;;;4.55;3.25;;;16.60;99.90;;;;;;4958074;28;20780;-86
2021/09/16 02:26:27;;;;;;;7.22;3.20;;;16.60;99.90;;;;;;4934996;28;20227;-86
2021/09/16 02:28:54;;;;;;;5.70;3.30;;;16.50;99.90;;;;;;4953256;28;20230;-86
2021/09/16 02:31:23;;;;;;;4.10;3.10;;;16.50;99.90;;;;;;4928931;28;20212;-86
2021/09/16 02:33:50;;;;;;;5.80;3.60;;;16.50;99.90;;;;;;4924299;28;20249;-86
2021/09/16 02:36:17;;;;;;;3.92;3.50;;;16.50;99.90;;;;;;4915185;28;20302;-86
2021/09/16 02:38:44;;;;;;;3.28;2.97;;;16.60;99.90;;;;;;4933986;28;20238;-86
2021/09/16 02:41:11;;;;;;;3.78;2.95;;;16.60;99.90;;;;;;4930331;29;20237;-87
2021/09/16 02:43:38;;;;;;;5.63;3.03;;;16.60;99.90;;;;;;4926585;28;20227;-86
2021/09/16 02:46:05;;;;;;;3.30;2.83;;;16.60;99.90;;;;;;4925517;28;20274;-87
2021/09/16 02:48:33;;;;;;;5.75;3.47;;;16.50;99.90;;;;;;4919561;28;20237;-86
2021/09/16 02:51:00;;;;;;;5.95;3.30;;;16.40;99.90;;;;;;4927645;28;20215;-86
2021/09/16 02:53:30;;;;;;;3.58;3.28;;;16.40;99.90;;;;;;4924054;28;20222;-86
2021/09/16 02:55:57;;;;;;;4.53;3.55;;;16.30;99.90;;;;;;4921034;28;20209;-88
2021/09/16 02:58:24;;;;;;;6.47;3.20;;;16.30;99.90;;;;;;4929488;28;20867;-89
2021/09/16 03:00:51;;;;;;;5.88;3.33;;;16.30;99.90;;;;;;4923756;28;20207;-87
2021/09/16 03:03:18;;;;;;;6.88;3.83;;;16.30;99.90;;;;;;4926861;28;20704;-86
2021/09/16 03:05:47;;;;;;;4.28;3.28;;;16.20;99.90;;;;;;4925069;28;20205;-86
2021/09/16 03:08:17;;;;;;;4.55;3.33;;;16.20;99.90;;;;;;4915391;28;20234;-87
2021/09/16 03:10:45;;;;;;;3.53;3.05;;;16.30;99.90;;;;;;4919895;28;20261;-86
2021/09/16 03:13:12;;;;;;;4.68;3.17;;;16.30;99.90;;;;;;4919867;28;20244;-86
2021/09/16 03:15:39;;;;;;;3.55;3.25;;;16.40;99.90;;;;;;4914975;28;20212;-86
2021/09/16 03:18:06;;;;;;;5.13;3.38;;;16.50;99.90;;;;;;4916683;28;20314;-86
2021/09/16 03:20:33;;;;;;;5.47;3.58;;;16.50;99.90;;;;;;4934753;28;20262;-86
2021/09/16 03:23:01;;;;;;;7.28;3.38;;;16.50;99.90;;;;;;4943716;28;20226;-86
2021/09/16 03:25:28;;;;;;;4.65;3.33;;;16.50;99.90;;;;;;4922552;28;20218;-86
2021/09/16 03:27:55;;;;;;;8.93;3.42;;;16.50;99.90;;;;;;4921595;28;20321;-87
2021/09/16 03:30:23;;;;;;;5.55;3.63;;;16.50;99.90;;;;;;4920661;28;20198;-86
2021/09/16 03:32:49;;;;;;;4.75;3.00;;;16.50;99.90;;;;;;4926462;28;20230;-86
2021/09/16 03:35:17;;;;;;;6.80;3.35;;;16.50;99.90;;;;;;4920929;28;20207;-86
2021/09/16 03:37:44;;;;;;;3.97;3.47;;;16.40;99.90;;;;;;4923059;28;20681;-86
2021/09/16 03:40:14;;;;;;;8.23;3.65;;;16.40;99.90;;;;;;4927924;28;20203;-86
2021/09/16 03:42:41;;;;;;;5.50;3.38;;;16.40;99.90;;;;;;4928055;28;20792;-86
2021/09/16 03:45:09;;;;;;;5.65;3.45;;;16.40;99.90;;;;;;4927583;28;20665;-87
2021/09/16 03:47:36;;;;;;;6.28;3.50;;;16.40;99.90;;;;;;4934893;28;20222;-87
2021/09/16 03:50:03;;;;;;;5.28;3.50;;;16.30;99.90;;;;;;4916877;28;20557;-87
2021/09/16 03:52:30;;;;;;;9.93;3.25;;;16.20;99.90;;;;;;4913186;28;20238;-86
2021/09/16 03:54:57;;;;;;;4.43;3.33;;;16.40;99.90;;;;;;4928817;28;20203;-87
2021/09/16 03:57:25;;;;;;;5.68;3.30;;;16.40;99.90;;;;;;4935044;28;20236;-86
2021/09/16 03:59:53;;;;;;;8.02;3.45;;;16.40;99.90;;;;;;4919604;28;20214;-87
2021/09/16 04:02:19;;;;;;;3.92;3.53;;;16.40;99.90;;;;;;4915699;28;20768;-86
2021/09/16 04:04:46;;;;;;;5.60;3.30;;;16.40;99.90;;;;;;4914190;28;20213;-86
2021/09/16 04:07:13;;;;;;;5.13;3.28;;;16.40;99.90;;;;;;4917592;28;20253;-86
2021/09/16 04:09:41;;;;;;;3.90;3.53;;;16.40;99.90;;;;;;4922987;28;20233;-86
2021/09/16 04:12:08;;;;;;;4.68;3.55;;;16.40;99.90;;;;;;4922512;28;20316;-87
2021/09/16 04:14:36;;;;;;;3.92;3.25;;;16.50;99.90;;;;;;4920346;28;20214;-86
2021/09/16 04:17:04;;;;;;;6.47;3.47;;;16.40;99.90;;;;;;4921307;28;20206;-86
2021/09/16 04:19:31;;;;;;;5.22;3.38;;;16.40;99.90;;;;;;4926114;29;20199;-86
2021/09/16 04:21:58;;;;;;;6.53;4.50;;;16.40;99.90;;;;;;4921984;28;20266;-86
2021/09/16 04:24:25;;;;;;;8.73;4.90;;;16.40;99.90;;;;;;4922927;28;20198;-86
2021/09/16 04:26:52;;;;;;;8.25;4.47;;;16.60;99.90;;;;;;4913842;28;20230;-86
2021/09/16 04:29:19;;;;;;;9.43;5.80;;;16.70;99.90;;;;;;4926662;28;20745;-86
2021/09/16 04:31:48;;;;;;;10.00;8.25;;;16.80;99.90;;;;;;4923567;28;20198;-86
2021/09/16 04:34:15;;;;;;;9.88;8.63;;;16.80;99.90;;;;;;4931214;28;20300;-86
2021/09/16 04:36:41;;;;;;;6.07;3.75;;;16.90;99.90;;;;;;4921421;28;20202;-87
2021/09/16 04:39:09;;;;;;;6.00;3.58;;;16.80;99.90;;;;;;4924080;28;20285;-86
2021/09/16 04:41:36;;;;;;;9.90;5.65;;;16.70;99.90;;;;;;4922268;28;20383;-87
2021/09/16 04:44:03;;;;;;;9.70;8.45;;;16.60;99.90;;;;;;4946378;28;20582;-86
2021/09/16 04:46:31;;;;;;;9.70;4.60;;;16.70;99.90;;;;;;4923607;28;20229;-87
2021/09/16 04:48:59;;;;;;;7.53;3.78;;;16.70;99.90;;;;;;4932994;28;20253;-88
2021/09/16 04:51:26;;;;;;;9.15;4.28;;;16.70;99.90;;;;;;4927688;28;20199;-91
2021/09/16 04:53:54;;;;;;;4.05;3.65;;;16.60;99.90;;;;;;4926572;28;20321;-90
2021/09/16 04:56:21;;;;;;;6.95;3.63;;;16.60;99.90;;;;;;4931486;28;20233;-89
2021/09/16 04:58:49;;;;;;;6.55;3.70;;;16.60;99.90;;;;;;4930870;28;20241;-89
2021/09/16 05:01:15;;;;;;;6.68;4.40;;;16.60;99.90;;;;;;4932766;28;20218;-89
2021/09/16 05:03:43;;;;;;;5.78;3.55;;;16.60;99.90;;;;;;4924783;28;20223;-89
2021/09/16 05:06:11;;;;;;;5.40;3.78;;;16.70;99.90;;;;;;4933558;28;20213;-88
2021/09/16 05:08:40;;;;;;;4.88;4.38;;;16.70;99.90;;;;;;4931035;28;20244;-89
2021/09/16 05:11:08;;;;;;;10.90;4.60;;;16.70;99.90;;;;;;4923427;28;20207;-89
2021/09/16 05:13:34;;;;;;;4.97;3.50;;;16.80;99.90;;;;;;4929081;28;20238;-88
2021/09/16 05:16:01;;;;;;;6.00;3.60;;;16.80;99.90;;;;;;4942486;28;20207;-89
2021/09/16 05:18:28;;;;;;;4.07;3.65;;;16.80;99.90;;;;;;4924964;28;20234;-91
2021/09/16 05:20:56;;;;;;;3.55;3.25;;;16.70;99.90;;;;;;4935017;28;20217;-89
2021/09/16 05:23:24;;;;;;;6.50;4.93;;;16.70;99.90;;;;;;4942215;28;20302;-89
2021/09/16 05:25:51;;;;;;;7.28;3.95;;;16.80;99.90;;;;;;4938212;28;20202;-88
2021/09/16 05:28:19;;;;;;;5.85;3.67;;;16.90;99.90;;;;;;4937898;28;20291;-89
2021/09/16 05:30:46;;;;;;;8.50;4.00;;;16.90;99.90;;;;;;4925219;28;20202;-89
2021/09/16 05:33:13;;;;;;;7.00;3.80;;;16.90;99.90;;;;;;4928750;28;20322;-89
2021/09/16 05:35:41;;;;;;;5.63;4.50;;;16.90;99.90;;;;;;4926834;28;20206;-90
2021/09/16 05:38:08;;;;;;;5.07;3.95;;;17.10;99.90;;;;;;4927001;28;20242;-91
2021/09/16 05:40:37;;;;;;;4.88;3.67;;;17.10;99.90;;;;;;4917987;28;20210;-91
2021/09/16 05:43:06;;;;;;;7.10;3.67;;;17.10;99.90;;;;;;4907704;28;20261;-91
2021/09/16 05:45:34;;;;;;;7.30;4.15;;;17.20;99.90;;;;;;4913772;28;20286;-91
2021/09/16 05:48:01;;;;;;;8.13;3.75;;;17.20;99.90;;;;;;4916463;28;20263;-91
2021/09/16 05:50:28;;;;;;;5.90;3.60;;;17.10;99.90;;;;;;4914601;28;20225;-92
2021/09/16 05:52:55;;;;;;;6.72;3.97;;;17.00;99.90;;;;;;4912284;28;20234;-91
2021/09/16 05:55:22;;;;;;;8.98;4.05;;;17.00;99.90;;;;;;4933219;28;20287;-91
2021/09/16 05:57:51;;;;;;;5.88;4.35;;;17.00;99.90;;;;;;4940828;28;20267;-91
2021/09/16 06:00:19;;;;;;;8.98;4.20;;;17.10;99.90;;;;;;4938092;28;20289;-91
2021/09/16 06:02:45;;;;;;;7.95;4.60;;;17.20;99.90;;;;;;4931000;28;20227;-92
2021/09/16 06:05:12;;;;;;;7.45;4.07;;;17.30;99.90;;;;;;4925176;28;20288;-91
2021/09/16 06:07:40;;;;;;;7.55;4.22;;;17.40;99.90;;;;;;4909071;28;20235;-88
2021/09/16 06:10:08;;;;;;;6.63;4.20;;;17.40;99.90;;;;;;4916370;28;20247;-89
2021/09/16 06:12:35;;;;;;;6.35;3.70;;;17.40;99.90;;;;;;4926198;28;20309;-88
2021/09/16 06:15:04;;;;;;;4.18;3.63;;;17.40;99.90;;;;;;4918025;28;20274;-90
2021/09/16 06:17:31;;;;;;;7.22;4.18;;;17.50;99.90;;;;;;4918723;28;20286;-89
2021/09/16 06:19:58;;;;;;;8.00;4.32;;;17.40;99.90;;;;;;4923759;28;20205;-88
2021/09/16 06:22:25;;;;;;;5.55;3.65;;;17.40;99.90;;;;;;4932776;28;20302;-87
2021/09/16 06:24:53;;;;;;;7.95;3.78;;;17.40;99.90;;;;;;4962545;28;20216;-87
2021/09/16 06:27:20;;;;;;;5.72;3.88;;;17.40;99.90;;;;;;4937540;28;20219;-87
2021/09/16 06:29:47;;;;;;;5.32;3.67;;;17.50;99.90;;;;;;4919481;28;20298;-90
2021/09/16 06:32:16;;;;;;;6.70;3.72;;;17.70;99.90;;;;;;4937707;28;20319;-88
2021/09/16 06:34:43;;;;;;;6.15;3.72;;;17.80;99.90;;;;;;4958939;28;20201;-87
2021/09/16 06:37:10;;;;;;;5.43;3.47;;;17.80;99.90;;;;;;4949663;28;20790;-87
2021/09/16 06:39:37;;;;;;;5.85;3.50;;;17.90;99.90;;;;;;4913506;28;20297;-88
2021/09/16 06:42:06;;;;;;;6.22;3.40;;;18.00;99.90;;;;;;4916440;28;20221;-88
2021/09/16 06:44:33;;;;;;;4.90;3.30;;;18.00;99.90;;;;;;4944790;28;20325;-88
2021/09/16 06:47:00;;;;;;;5.13;3.55;;;18.00;99.90;;;;;;4953305;28;20675;-88
2021/09/16 06:49:36;;;;;;;7.28;3.60;;;18.10;99.90;;;;;;4923253;28;20321;-88
2021/09/16 06:52:05;;;;;;;4.57;3.40;;;18.20;99.90;;;;;;4918459;28;20252;-89
2021/09/16 06:54:32;;;;;;;4.63;3.60;;;18.20;99.90;;;;;;4924264;28;20289;-89
2021/09/16 06:56:59;;;;;;;3.83;3.40;;;18.40;99.90;;;;;;4934972;28;20245;-88
2021/09/16 06:59:26;;;;;;;6.20;3.25;;;18.60;99.90;;;;;;4963603;28;20258;-88
2021/09/16 07:01:53;;;;;;;4.47;3.30;;;18.60;99.90;;;;;;4940810;28;20206;-89
2021/09/16 07:04:20;;;;;;;6.28;3.50;;;18.70;99.90;;;;;;4935951;28;20277;-89
2021/09/16 07:06:48;;;;;;;8.73;3.42;;;18.80;99.90;;;;;;4934072;28;20896;-88
2021/09/16 07:09:15;;;;;;;5.22;3.25;;;18.80;99.90;;;;;;4932962;28;20243;-89
2021/09/16 07:11:42;;;;;;;6.63;3.17;;;18.80;99.90;;;;;;4937528;28;20285;-88
2021/09/16 07:14:09;;;;;;;4.47;3.00;;;18.90;99.90;;;;;;4920490;28;20245;-89
2021/09/16 07:16:36;;;;;;;4.57;3.08;;;18.90;99.90;;;;;;4932109;28;20202;-88
2021/09/16 07:19:03;;;;;;;3.72;3.30;;;18.90;99.90;;;;;;4928195;28;20235;-88
2021/09/16 07:21:30;;;;;;;4.25;3.30;;;19.00;99.90;;;;;;4923553;28;20274;-88
2021/09/16 07:23:59;;;;;;;4.50;3.05;;;19.20;99.90;;;;;;4912199;28;20703;-88
2021/09/16 07:26:26;;;;;;;4.38;3.33;;;19.40;99.80;;;;;;4930376;28;20217;-88
2021/09/16 07:28:53;;;;;;;5.03;3.00;;;19.50;99.50;;;;;;4949200;28;20254;-87
2021/09/16 07:31:20;;;;;;;4.40;3.00;;;19.60;99.00;;;;;;4915548;28;20262;-88
2021/09/16 07:33:48;;;;;;;3.80;3.30;;;19.60;98.60;;;;;;4950045;28;20290;-87
2021/09/16 07:36:15;;;;;;;4.30;3.15;;;19.60;98.80;;;;;;4937492;28;20198;-87
2021/09/16 07:38:46;;;;;;;6.55;3.50;;;19.60;98.90;;;;;;4940112;28;20604;-87
2021/09/16 07:41:14;;;;;;;4.85;3.42;;;19.70;99.00;;;;;;4938936;28;20198;-87
2021/09/16 07:43:41;;;;;;;4.85;3.40;;;19.80;98.70;;;;;;4939404;28;20303;-88
2021/09/16 07:46:08;;;;;;;3.85;3.20;;;20.00;98.40;;;;;;4939016;28;20266;-88
2021/09/16 07:48:35;;;;;;;6.90;3.45;;;20.30;98.10;;;;;;4930035;28;20309;-87
2021/09/16 07:51:02;;;;;;;4.13;3.30;;;20.50;97.20;;;;;;4921191;28;20774;-89
2021/09/16 07:53:30;;;;;;;5.43;3.40;;;20.70;96.50;;;;;;4945459;28;20223;-87
2021/09/16 07:55:57;;;;;;;5.80;3.10;;;20.80;96.10;;;;;;4927423;28;20206;-91
2021/09/16 07:58:26;;;;;;;5.10;3.17;;;20.80;95.20;;;;;;4919043;28;20309;-91
2021/09/16 08:00:53;;;;;;;5.70;3.17;;;20.50;96.10;;;;;;4920501;28;20233;-87
2021/09/16 08:03:20;;;;;;;6.57;3.22;;;20.30;96.30;;;;;;4938230;28;20227;-88
2021/09/16 08:05:47;;;;;;;4.30;3.47;;;20.10;97.00;;;;;;4922635;28;20228;-87
2021/09/16 08:08:14;;;;;;;5.50;3.50;;;20.00;97.50;;;;;;4931256;28;20230;-88
2021/09/16 08:10:41;;;;;;;5.70;3.63;;;19.80;98.00;;;;;;4934297;28;20222;-87
2021/09/16 08:13:08;;;;;;;3.75;3.30;;;19.70;98.00;;;;;;4929819;28;20237;-87
2021/09/16 08:15:37;;;;;;;7.20;3.38;;;19.50;98.30;;;;;;4960212;28;20222;-86
2021/09/16 08:18:04;;;;;;;6.22;3.72;;;19.30;99.20;;;;;;4948797;28;20222;-90
2021/09/16 08:20:31;;;;;;;5.28;3.50;;;19.20;99.90;;;;;;4902093;28;20256;-87
2021/09/16 08:22:58;;;;;;;7.15;3.92;;;19.30;99.90;;;;;;4914685;28;20311;-87
2021/09/16 08:25:25;;;;;;;8.40;3.80;;;19.40;99.90;;;;;;4933037;28;20650;-87
2021/09/16 08:27:52;;;;;;;7.00;4.50;;;19.60;99.90;;;;;;4934057;28;20230;-86
2021/09/16 08:30:19;;;;;;;7.47;3.88;;;19.80;99.90;;;;;;4935709;28;20226;-86
2021/09/16 08:32:49;;;;;;;4.43;3.50;;;20.00;99.60;;;;;;4922525;28;20242;-87
2021/09/16 08:35:16;;;;;;;5.78;3.70;;;20.10;99.20;;;;;;4924087;28;20368;-86
2021/09/16 08:37:43;;;;;;;6.32;3.90;;;20.10;98.70;;;;;;4925497;28;20698;-88
2021/09/16 08:40:12;;;;;;;5.85;4.07;;;20.00;98.40;;;;;;4919829;28;20293;-87
2021/09/16 08:42:40;;;;;;;4.80;3.63;;;19.90;98.60;;;;;;4946270;28;20677;-87
2021/09/16 08:45:11;;;;;;;5.00;3.70;;;19.60;99.40;;;;;;4924659;28;20211;-87
2021/09/16 08:47:39;;;;;;;5.85;4.10;;;19.50;99.80;;;;;;4926895;28;20227;-87
2021/09/16 08:50:09;;;;;;;5.35;4.05;;;19.30;99.90;;;;;;4917449;28;20235;-87
2021/09/16 08:52:40;;;;;;;7.13;4.20;;;19.30;99.90;;;;;;4924189;28;20697;-86
2021/09/16 08:55:09;;;;;;;6.63;4.22;;;19.40;99.90;;;;;;4922322;28;20202;-88
2021/09/16 08:57:37;;;;;;;8.15;4.20;;;19.40;99.90;;;;;;4919463;28;20279;-87
2021/09/16 09:00:06;;;;;;;6.88;4.30;;;19.50;99.90;;;;;;4922081;28;20206;-88
2021/09/16 09:02:34;;;;;;;6.90;4.30;;;19.70;99.90;;;;;;4918320;28;20683;-87
2021/09/16 09:05:02;;;;;;;6.75;4.07;;;19.90;99.90;;;;;;4970650;28;20558;-87
2021/09/16 09:07:39;;;;;;;5.30;3.88;;;20.20;99.70;;;;;;4943370;28;20236;-86
2021/09/16 09:10:07;;;;;;;5.05;3.80;;;20.50;99.10;;;;;;4918900;28;20230;-87
2021/09/16 09:12:35;;;;;;;5.30;3.58;;;20.70;98.20;;;;;;4918719;28;20231;-87
2021/09/16 09:15:02;;;;;;;5.90;3.58;;;20.80;97.70;;;;;;4916500;28;20305;-88
2021/09/16 09:17:31;;;;;;;5.15;3.85;;;21.00;97.00;;;;;;4918088;28;20222;-87
2021/09/16 09:20:01;;;;;;;4.65;4.03;;;21.20;96.80;;;;;;4927111;28;20210;-87
2021/09/16 09:22:30;;;;;;;5.25;3.33;;;21.40;96.30;;;;;;4924918;28;20591;-87
2021/09/16 09:25:01;;;;;;;6.78;3.80;;;21.60;95.80;;;;;;4914833;28;20203;-88
2021/09/16 09:27:30;;;;;;;4.30;3.83;;;21.80;94.80;;;;;;4932735;28;20236;-87
2021/09/16 09:30:14;;;;;;;5.18;3.63;;;21.80;93.80;;;;;;4932372;28;20248;-85
2021/09/16 09:32:49;;;;;;;4.63;3.25;;;21.80;94.50;;;;;;4931693;28;20231;-84
2021/09/16 09:35:33;;;;;;;5.78;3.90;;;21.90;94.30;;;;;;4934948;28;20207;-87
2021/09/16 09:38:02;;;;;;;5.28;3.67;;;21.90;93.80;;;;;;4944998;28;20661;-88
2021/09/16 09:40:33;;;;;;;5.28;3.10;;;21.90;93.70;;;;;;4924313;28;20209;-86
2021/09/16 09:43:19;;;;;;;4.22;3.53;;;21.70;93.30;;;;;;4929896;28;20233;-86
2021/09/16 09:45:59;;;;;;;5.00;3.22;;;21.50;94.10;;;;;;4930317;28;20256;-87
2021/09/16 09:48:25;;;;;;;5.15;3.67;;;21.20;94.40;;;;;;4922439;28;20229;-86
2021/09/16 09:50:53;;;;;;;6.47;3.33;;;20.90;95.00;;;;;;4949535;28;20258;-88
2021/09/16 09:53:20;;;;;;;7.50;3.67;;;20.70;96.20;;;;;;4933037;28;20228;-87
2021/09/16 09:55:49;;;;;;;4.95;3.72;;;20.60;96.60;;;;;;4910081;28;20202;-86
2021/09/16 09:58:28;;;;;;;3.95;3.25;;;20.50;97.20;;;;;;4939493;28;20230;-86
2021/09/16 10:01:29;;;;;;;5.78;3.78;;;20.20;97.80;;;;;;4920847;28;20213;-85
2021/09/16 10:03:57;;;;;;;7.25;4.00;;;20.10;98.30;;;;;;4938595;28;20234;-85
2021/09/16 10:06:33;;;;;;;4.95;4.10;;;19.80;99.50;;;;;;4931384;28;20210;-85
2021/09/16 10:09:09;;;;;;;6.00;4.28;;;19.70;99.90;;;;;;4937173;28;20226;-88
2021/09/16 10:11:42;;;;;;;5.68;4.07;;;19.60;99.90;;;;;;4942443;28;20333;-88
2021/09/16 10:14:09;;;;;;;7.20;4.43;;;19.50;99.90;;;;;;4933536;28;20262;-89
2021/09/16 10:16:36;;;;;;;6.45;4.38;;;19.40;99.90;;;;;;4930663;28;20705;-88
2021/09/16 10:19:04;;;;;;;6.38;4.78;;;19.50;99.90;;;;;;4925014;28;20239;-85
2021/09/16 10:21:31;;;;;;;5.28;4.35;;;19.60;99.90;;;;;;4934826;28;20208;-87
2021/09/16 10:24:00;;;;;;;8.98;4.70;;;19.60;99.90;;;;;;4959310;28;20290;-85
2021/09/16 10:26:35;;;;;;;5.32;4.28;;;19.50;99.90;;;;;;4926665;28;20725;-87
2021/09/16 10:29:04;;;;;;;5.07;4.30;;;19.60;99.90;;;;;;4965911;28;20222;-86
2021/09/16 10:31:32;;;;;;;4.38;4.03;;;19.60;99.90;;;;;;4933867;28;20254;-85
2021/09/16 10:34:00;;;;;;;5.40;4.35;;;19.60;99.90;;;;;;4929426;28;20322;-85
2021/09/16 10:36:27;;;;;;;6.53;4.40;;;19.70;99.90;;;;;;4912520;29;20234;-87
2021/09/16 10:38:55;;;;;;;8.90;4.63;;;19.60;99.90;;;;;;4926042;29;20294;-86
2021/09/16 10:41:26;;;;;;;6.28;4.13;;;19.70;99.90;;;;;;4911810;28;20202;-87
2021/09/16 10:44:20;;;;;;;5.97;3.90;;;19.70;99.90;;;;;;4924473;28;20235;-87
2021/09/16 10:46:52;;;;;;;4.93;3.90;;;19.80;99.90;;;;;;4958329;28;20248;-90
2021/09/16 10:49:35;;;;;;;7.40;4.18;;;20.10;99.90;;;;;;4911225;29;20233;-88
2021/09/16 10:52:17;;;;;;;6.70;4.13;;;20.50;99.30;;;;;;4924322;28;20226;-88
2021/09/16 10:54:49;;;;;;;5.05;3.80;;;20.80;98.30;;;;;;4913973;28;20209;-87
2021/09/16 10:57:17;;;;;;;4.50;4.10;;;21.00;97.60;;;;;;4908895;28;20604;-88
2021/09/16 11:00:10;;;;;;;7.78;3.88;;;21.10;96.60;;;;;;4926431;28;20217;-88
2021/09/16 11:03:12;;;;;;;6.85;4.22;;;21.10;96.60;;;;;;4955048;28;20234;-87
2021/09/16 11:05:58;;;;;;;5.55;4.05;;;20.80;96.90;;;;;;4917820;29;20271;-86
2021/09/16 11:08:59;;;;;;;9.95;4.15;;;20.80;97.20;;;;;;4922119;28;20269;-87
2021/09/16 11:11:26;;;;;;;5.15;4.20;;;20.50;97.90;;;;;;4934124;28;20213;-86
2021/09/16 11:13:54;;;;;;;5.95;4.10;;;20.30;98.10;;;;;;4931854;28;20322;-86
2021/09/16 11:16:26;;;;;;;6.13;4.22;;;20.30;98.20;;;;;;4923806;28;20215;-88
2021/09/16 11:19:21;;;;;;;5.30;4.05;;;20.50;98.20;;;;;;4920026;28;20227;-87
2021/09/16 11:21:59;;;;;;;5.40;4.03;;;20.50;98.20;;;;;;4907337;28;20546;-87
2021/09/16 11:24:44;;;;;;;7.70;4.00;;;20.60;98.50;;;;;;4902374;29;20213;-88
2021/09/16 11:27:12;;;;;;;6.05;4.70;;;20.60;98.20;;;;;;4916922;28;20256;-87
2021/09/16 11:29:42;;;;;;;5.68;4.10;;;20.60;98.20;;;;;;4928986;29;20227;-88
2021/09/16 11:32:14;;;;;;;7.05;4.07;;;20.60;98.50;;;;;;4921639;28;20224;-87
2021/09/16 11:34:58;;;;;;;5.65;4.22;;;20.30;98.70;;;;;;4908321;29;20203;-88
2021/09/16 11:37:30;;;;;;;6.57;4.70;;;20.30;99.10;;;;;;4909549;28;20228;-89
2021/09/16 11:40:00;;;;;;;6.03;4.80;;;20.30;99.40;;;;;;4911986;28;20297;-91
2021/09/16 11:42:31;;;;;;;7.18;4.45;;;20.40;99.50;;;;;;4907092;28;20230;-89
2021/09/16 11:46:10;;;;;;;5.60;4.80;;;20.20;99.50;;;;;;4920099;28;20216;-90
2021/09/16 11:48:39;;;;;;;8.85;5.22;;;20.30;99.60;;;;;;4898729;28;20222;-88
2021/09/16 11:51:07;;;;;;;5.32;4.60;;;20.40;98.90;;;;;;4911006;28;20696;-86
2021/09/16 11:53:36;;;;;;;7.32;5.75;;;20.50;99.00;;;;;;4910073;28;20218;-87
2021/09/16 11:56:05;;;;;;;6.70;5.63;;;20.50;99.10;;;;;;4919531;28;20678;-88
2021/09/16 11:58:33;;;;;;;6.60;4.40;;;20.50;98.50;;;;;;4931353;28;20312;-88
2021/09/16 12:01:02;;;;;;;5.65;3.97;;;20.50;98.70;;;;;;4936139;28;20226;-90
2021/09/16 12:03:34;;;;;;;4.35;3.88;;;20.40;98.20;;;;;;4944953;28;20238;-91
2021/09/16 12:11:50;;;;;;;9.63;4.20;;;20.90;97.60;;;;;;4896921;28;20314;-90
2021/09/16 12:14:18;;;;;;;5.43;4.00;;;21.00;97.80;;;;;;4892040;28;20226;-89
2021/09/16 12:16:50;;;;;;;4.45;3.83;;;21.30;97.40;;;;;;4914670;29;20237;-89
2021/09/16 12:19:19;;;;;;;5.15;3.70;;;21.50;95.80;;;;;;4917597;28;20233;-89
2021/09/16 12:21:53;;;;;;;5.95;4.18;;;21.80;95.30;;;;;;4919006;28;20268;-89
2021/09/16 12:24:22;;;;;;;5.32;3.88;;;21.90;95.10;;;;;;4920252;29;20317;-91
2021/09/16 12:26:51;;;;;;;6.47;3.95;;;22.10;94.80;;;;;;4910703;28;20662;-91
2021/09/16 12:29:20;;;;;;;5.75;4.20;;;22.10;95.00;;;;;;4911456;28;20242;-91
2021/09/16 12:31:55;;;;;;;4.65;3.42;;;22.30;94.40;;;;;;4916708;28;20236;-91
2021/09/16 12:34:22;;;;;;;5.45;3.80;;;22.40;94.50;;;;;;4921003;28;20872;-86
2021/09/16 12:36:56;;;;;;;6.57;3.97;;;22.20;94.20;;;;;;4920917;28;20777;-87
2021/09/16 12:39:24;;;;;;;6.32;3.67;;;22.20;94.20;;;;;;4931037;28;20292;-89
2021/09/16 12:41:56;;;;;;;8.40;4.03;;;22.20;94.40;;;;;;4923395;28;20206;-90
2021/09/16 12:44:24;;;;;;;5.65;3.70;;;22.10;94.80;;;;;;4910762;28;20229;-89
2021/09/16 12:46:57;;;;;;;6.18;3.90;;;22.30;94.60;;;;;;4917661;28;20210;-89
2021/09/16 12:49:38;;;;;;;5.15;3.67;;;22.50;94.30;;;;;;4919992;28;20580;-89
2021/09/16 12:52:12;;;;;;;5.78;3.60;;;22.40;93.80;;;;;;4921873;28;20343;-88
2021/09/16 12:54:44;;;;;;;5.07;3.42;;;22.40;93.20;;;;;;4938249;28;20206;-89
2021/09/16 12:57:11;;;;;;;5.53;3.60;;;22.40;93.10;;;;;;4922622;28;20333;-91
2021/09/16 12:59:43;;;;;;;6.05;3.40;;;22.20;93.10;;;;;;4923037;28;20235;-88
2021/09/16 13:02:13;;;;;;;5.30;3.80;;;22.20;93.10;;;;;;4924675;28;20295;-87
2021/09/16 13:04:59;;;;;;;6.25;3.47;;;22.00;93.40;;;;;;4925101;28;20227;-87